Flight Track Log - Related Links

Times and Time Zones

All times are in EDT time to prevent confusion due to time zone crossing. See the N770FE flight status page for this flight to view local times or setup timezone preferences in your user account.

Time Position Orientation Groundspeed Altitude Reporting Facility
EDT Latitude Longitude Course Direction KTS MPH feet Rate Location/Type
Fri 08:44:55 PM 41.1530 -96.7520 76° East 177 204  Level FlightAware ADS-B
Fri 08:45:24 PM 41.1590 -96.7190 76° East 178 205 202 Level FlightAware ADS-B
Fri 08:46:00 PM 41.1660 -96.6800 77° East 178 205 211 Level FlightAware ADS-B
Fri 08:46:26 PM 41.1710 -96.6540 76° East 178 205 222 Level FlightAware ADS-B
Fri 08:46:39 PM 41.1740 -96.6390 75° East 177 204 232 Level FlightAware ADS-B
Fri 08:47:10 PM 41.1790 -96.6060 79° East 179 206 236 Level FlightAware ADS-B
Fri 08:47:38 PM 41.1840 -96.5760 78° East 180 207 249 Level FlightAware ADS-B
Fri 08:48:06 PM 41.1900 -96.5460 75° East 181 208 262 Level FlightAware ADS-B
Fri 08:48:33 PM 41.1950 -96.5180 77° East 184 212 276 Level FlightAware ADS-B
Fri 08:49:00 PM 41.2000 -96.4850 79° East 197 227 291 Level FlightAware ADS-B
Fri 08:49:31 PM 41.2060 -96.4490 77° East 202 232 308 Level FlightAware ADS-B
Fri 08:49:42 PM 41.2090 -96.4350 74° East 202 232 330 Level FlightAware ADS-B
Fri 08:50:10 PM 41.2150 -96.4010 77° East 200 230 338 Level FlightAware ADS-B
Fri 08:50:42 PM 41.2210 -96.3630 78° East 199 229 362 Level FlightAware ADS-B
Fri 08:51:10 PM 41.2270 -96.3310 76° East 198 228 393 Level FlightAware ADS-B
Fri 08:51:22 PM 41.2300 -96.3160 75° East 196 226 426 Level FlightAware ADS-B
Fri 08:51:49 PM 41.2350 -96.2850 78° East 194 223 442 Level FlightAware ADS-B
Fri 08:52:04 PM 41.2380 -96.2660 78° East 195 224 482 Level FlightAware ADS-B
Fri 08:52:28 PM 41.2430 -96.2390 76° East 196 226 507 Level FlightAware ADS-B
Fri 08:52:59 PM 41.2500 -96.2030 75° East 195 224 554 Level FlightAware ADS-B
Fri 08:53:28 PM 41.2550 -96.1690 79° East 192 221 629 Level FlightAware ADS-B
Fri 08:53:56 PM 41.2610 -96.1370 76° East 189 217 720 Level FlightAware ADS-B
Fri 08:54:18 PM 41.2660 -96.1120 75° East 188 216 837 Level FlightAware ADS-B
Fri 08:54:53 PM 41.2740 -96.0740 74° East 187 215 960 Level FlightAware ADS-B
Fri 08:55:19 PM 41.2800 -96.0450 75° East 185 213 1,252 Level FlightAware ADS-B
Fri 08:55:34 PM 41.2850 -96.0280 69° East 187 215 1,618 Level FlightAware ADS-B
Fri 08:56:22 PM 41.3020 -95.9770 66° East 191 220 1,946 Level FlightAware ADS-B
Fri 08:56:48 PM 41.3100 -95.9520 67° East 178 205 2,400 2,556 Climbing FlightAware ADS-B
Fri 08:57:16 PM 41.3190 -95.9270 64° Northeast 177 204 2,300 69 Descending FlightAware ADS-B
Fri 08:59:00 PM 41.3011 -95.9691 241° Southwest  Level FlightAware Approximate
Fri 09:00:00 PM 41.2908 -95.9933 240° Southwest  Level FlightAware Approximate
Fri 09:01:00 PM 41.2805 -96.0176 240° Southwest  Level FlightAware Approximate
Fri 09:02:00 PM 41.2701 -96.0418 240° Southwest  Level FlightAware Approximate
Fri 09:03:00 PM 41.2629 -96.0725 258° West  Level FlightAware Approximate
Fri 09:04:00 PM 41.2584 -96.0997 258° West  Level FlightAware Approximate
Fri 09:05:00 PM 41.2539 -96.1269 258° West  Level FlightAware Approximate
Fri 09:06:00 PM 41.2494 -96.1541 258° West  Level FlightAware Approximate
Fri 09:07:00 PM 41.2448 -96.1813 257° West  Level FlightAware Approximate
Fri 09:08:00 PM 41.2403 -96.2085 257° West  Level FlightAware Approximate
Fri 09:09:00 PM 41.2357 -96.2357 257° West  Level FlightAware Approximate
Fri 09:10:00 PM 41.2333 -96.2632 270° West  Level FlightAware Approximate
Fri 09:11:00 PM 41.2319 -96.2908 256° West  Level FlightAware Approximate
Fri 09:12:00 PM 41.2269 -96.3179 256° West  Level FlightAware Approximate
Fri 09:13:00 PM 41.2219 -96.3449 256° West  Level FlightAware Approximate
Fri 09:14:00 PM 41.2168 -96.3719 256° West  Level FlightAware Approximate
Fri 09:15:00 PM 41.2117 -96.3989 256° West  Level FlightAware Approximate
Fri 09:16:00 PM 41.2067 -96.4260 256° West  Level FlightAware Approximate
Fri 09:17:00 PM 41.2016 -96.4530 256° West  Level FlightAware Approximate
Fri 09:18:00 PM 41.1965 -96.4800 256° West  Level FlightAware Approximate
Fri 09:19:00 PM 41.1914 -96.5070 256° West  Level FlightAware Approximate
Fri 09:20:00 PM 41.1864 -96.5340 256° West  Level FlightAware Approximate
Fri 09:21:00 PM 41.1814 -96.5610 257° West  Level FlightAware Approximate
Fri 09:22:00 PM 41.1766 -96.5881 257° West  Level FlightAware Approximate
Fri 09:23:00 PM 41.1718 -96.6152 257° West  Level FlightAware Approximate
Fri 09:24:00 PM 41.1670 -96.6423 257° West  Level FlightAware Approximate
Fri 09:25:00 PM 41.1623 -96.6694 257° West  Level FlightAware Approximate
Fri 09:25:53 PM 41.2630 -95.8950 184° South 86 99  Level FlightAware ADS-B
Fri 09:26:07 PM 41.2580 -95.8980 204° Southwest 91 105 263 Level FlightAware ADS-B
Fri 09:26:37 PM 41.2490 -95.9090 223° Southwest 102 117 266 Level FlightAware ADS-B
Fri 09:26:48 PM 41.2480 -95.9160 259° West 114 131 272 Level FlightAware ADS-B
Fri 09:27:15 PM 41.2480 -95.9350 270° West 108 124 274 Level FlightAware ADS-B
Fri 09:27:43 PM 41.2460 -95.9530 262° West 104 120 280 Level FlightAware ADS-B
Fri 09:27:55 PM 41.2440 -95.9600 249° West 104 120 286 Level FlightAware ADS-B
Fri 09:28:25 PM 41.2400 -95.9780 254° West 101 116 289 Level FlightAware ADS-B
Fri 09:28:54 PM 41.2360 -95.9950 253° West 98 113 296 Level FlightAware ADS-B
Fri 09:29:23 PM 41.2320 -96.0130 254° West 99 114 303 Level FlightAware ADS-B
Fri 09:29:38 PM 41.2310 -96.0210 261° West 105 121 311 Level FlightAware ADS-B
Fri 09:30:01 PM 41.2280 -96.0380 257° West 128 147 315 Level FlightAware ADS-B
Fri 09:30:29 PM 41.2250 -96.0590 259° West 134 154 321 Level FlightAware ADS-B
Fri 09:30:53 PM 41.2230 -96.0810 263° West 133 153 330 Level FlightAware ADS-B
Fri 09:31:16 PM 41.2210 -96.0980 261° West 134 154 337 Level FlightAware ADS-B
Fri 09:31:42 PM 41.2180 -96.1190 259° West 135 155 344 Level FlightAware ADS-B
Fri 09:32:13 PM 41.2140 -96.1450 258° West 135 155 353 Level FlightAware ADS-B
Fri 09:32:37 PM 41.2110 -96.1640 258° West 134 154 364 Level FlightAware ADS-B
Fri 09:33:05 PM 41.2080 -96.1870 260° West 134 154 373 Level FlightAware ADS-B
Fri 09:33:16 PM 41.2060 -96.1950 252° West 135 155 385 Level FlightAware ADS-B
Fri 09:33:49 PM 41.2020 -96.2230 259° West 134 154 389 Level FlightAware ADS-B
Fri 09:34:17 PM 41.1990 -96.2460 260° West 134 154 404 Level FlightAware ADS-B
Fri 09:34:29 PM 41.1970 -96.2560 255° West 134 154 417 Level FlightAware ADS-B
Fri 09:34:57 PM 41.1940 -96.2780 260° West 135 155 423 Level FlightAware ADS-B
Fri 09:35:09 PM 41.1920 -96.2870 254° West 135 155 437 Level FlightAware ADS-B
Fri 09:35:23 PM 41.1900 -96.2990 258° West 135 155 443 Level FlightAware ADS-B
Fri 09:35:57 PM 41.1860 -96.3260 259° West 136 157 451 Level FlightAware ADS-B
Fri 09:36:17 PM 41.1830 -96.3440 258° West 137 158 471 Level FlightAware ADS-B
Fri 09:36:35 PM 41.1810 -96.3590 260° West 138 159 484 Level FlightAware ADS-B
Fri 09:37:03 PM 41.1780 -96.3820 260° West 136 157 496 Level FlightAware ADS-B
Fri 09:37:15 PM 41.1760 -96.3910 254° West 136 157 516 Level FlightAware ADS-B
Fri 09:37:49 PM 41.1720 -96.4200 260° West 137 158 525 Level FlightAware ADS-B
Fri 09:38:16 PM 41.1690 -96.4410 259° West 136 157 552 Level FlightAware ADS-B
Fri 09:38:28 PM 41.1670 -96.4510 255° West 135 155 576 Level FlightAware ADS-B
Fri 09:38:53 PM 41.1640 -96.4720 259° West 135 155 587 Level FlightAware ADS-B
Fri 09:39:23 PM 41.1600 -96.4960 258° West 135 155 612 Level FlightAware ADS-B
Fri 09:39:37 PM 41.1580 -96.5080 258° West 135 155 645 Level FlightAware ADS-B
Fri 09:40:06 PM 41.1540 -96.5300 256° West 136 157 662 Level FlightAware ADS-B
Fri 09:40:21 PM 41.1520 -96.5430 258° West 135 155 699 Level FlightAware ADS-B
Fri 09:40:49 PM 41.1490 -96.5660 260° West 135 155 720 Level FlightAware ADS-B
Fri 09:41:18 PM 41.1450 -96.5890 257° West 135 155 763 Level FlightAware ADS-B
Fri 09:41:45 PM 41.1420 -96.6120 260° West 134 154 813 Level FlightAware ADS-B
Fri 09:42:06 PM 41.1390 -96.6280 256° West 136 157 865 Level FlightAware ADS-B
Fri 09:42:37 PM 41.1350 -96.6530 258° West 136 157 911 Level FlightAware ADS-B
Fri 09:43:07 PM 41.1310 -96.6780 258° West 133 153 989 Level FlightAware ADS-B
Fri 09:43:33 PM 41.1280 -96.6990 259° West 133 153 1,078 Level FlightAware ADS-B
Fri 09:44:03 PM 41.1240 -96.7230 258° West 134 154 1,169 Level FlightAware ADS-B
Fri 09:44:32 PM 41.1200 -96.7460 257° West 133 153 1,295 Level FlightAware ADS-B
Fri 09:45:00 PM 41.1160 -96.7680 256° West 135 155 1,446 Level FlightAware ADS-B
Fri 09:45:12 PM 41.1150 -96.7780 262° West 135 155 1,629 Level FlightAware ADS-B
Fri 09:45:37 PM 41.1110 -96.7980 255° West 135 155 1,722 Level FlightAware ADS-B
Fri 09:46:10 PM 41.1070 -96.8250 259° West 134 154 1,957 Level FlightAware ADS-B
Fri 09:46:35 PM 41.1040 -96.8450 259° West 134 154 2,384 Level FlightAware ADS-B
Fri 09:47:01 PM 41.1010 -96.8630 258° West 134 154 2,857 Level FlightAware ADS-B
Fri 09:47:49 PM 41.0950 -96.9020 258° West 137 158 3,600 Level FlightAware ADS-B
Fri 09:48:41 PM 41.0878 -96.9419 258° West 137 158 6,000 3,186 Climbing Minneapolis Center
Fri 09:49:42 PM 41.0778 -96.9903 255° West 137 158 6,000  Level Minneapolis Center
Fri 09:50:44 PM 41.0694 -97.0414 258° West 140 161 6,000  Level Minneapolis Center
Fri 09:51:45 PM 41.0589 -97.0917 254° West 141 162 6,000  Level Minneapolis Center
Fri 09:52:47 PM 41.0514 -97.1428 259° West 137 158 6,000  Level Minneapolis Center
Fri 09:53:48 PM 41.0439 -97.1922 259° West 136 157 6,000  Level Minneapolis Center
Fri 09:54:49 PM 41.0336 -97.2494 257° West 135 155 6,000  Level Minneapolis Center
Fri 09:55:51 PM 41.0267 -97.2978 259° West 135 155 6,000  Level Minneapolis Center
Fri 09:56:52 PM 41.0167 -97.3461 255° West 134 154 6,000  Level Minneapolis Center
Fri 09:57:54 PM 41.0128 -97.3917 264° West 131 151 6,000  Level Minneapolis Center
Fri 09:58:55 PM 41.0039 -97.4372 256° West 128 147 6,000  Level Minneapolis Center
Fri 09:59:57 PM 40.9944 -97.4839 255° West 129 148 6,000  Level Minneapolis Center
Fri 10:01:10 PM 40.9875 -97.5311 259° West 130 150 6,000  Level Minneapolis Center
Fri 10:02:11 PM 40.9792 -97.5786 257° West 131 151 6,000  Level Minneapolis Center
Fri 10:03:13 PM 40.9703 -97.6336 258° West 130 150 6,000  Level Minneapolis Center
Fri 10:04:15 PM 40.9619 -97.6789 256° West 128 147 6,000  Level Minneapolis Center
Fri 10:05:16 PM 40.9533 -97.7350 259° West 129 148 6,000  Level Minneapolis Center
Fri 10:06:17 PM 40.9447 -97.7833 257° West 131 151 6,000  Level Minneapolis Center
Fri 10:07:19 PM 40.9364 -97.8289 256° West 130 150 6,000  Level Minneapolis Center
Fri 10:08:20 PM 40.9281 -97.8772 257° West 131 151 6,000  Level Minneapolis Center
Fri 10:09:22 PM 40.9203 -97.9244 258° West 132 152 6,000  Level Minneapolis Center
Fri 10:10:23 PM 40.9122 -97.9750 258° West 135 155 6,000  Level Minneapolis Center
Fri 10:11:24 PM 40.9033 -98.0214 256° West 134 154 6,000  Level Minneapolis Center
Fri 10:12:26 PM 40.8950 -98.0692 257° West 133 153 6,000  Level Minneapolis Center
Fri 10:13:27 PM 40.8867 -98.1181 257° West 134 154 6,000  Level Minneapolis Center
Fri 10:14:28 PM 40.8781 -98.1661 257° West 134 154 6,000  Level Minneapolis Center
Fri 10:15:30 PM 40.8681 -98.2250 257° West 136 157 6,000  Level Minneapolis Center
Fri 10:16:31 PM 40.8594 -98.2731 257° West 135 155 6,000  Level Minneapolis Center
Fri 10:17:33 PM 40.8514 -98.3222 258° West 136 157 6,000  Level Minneapolis Center
Fri 10:18:34 PM 40.8425 -98.3714 257° West 137 158 6,000  Level Minneapolis Center
Fri 10:19:35 PM 40.8331 -98.4186 255° West 135 155 6,000  Level Minneapolis Center
Fri 10:20:37 PM 40.8244 -98.4669 257° West 135 155 6,000  Level Minneapolis Center
Fri 10:21:38 PM 40.8153 -98.5161 256° West 136 157 6,000 -98 Level Minneapolis Center
Fri 10:22:39 PM 40.8058 -98.5644 256° West 136 157 5,800 -244 Descending Minneapolis Center
Fri 10:23:41 PM 40.7975 -98.6169 258° West 140 161 5,500 -293 Descending Minneapolis Center
Fri 10:24:42 PM 40.7878 -98.6711 257° West 145 167 5,200 -293 Descending Minneapolis Center
Fri 10:25:44 PM 40.7789 -98.7239 257° West 147 169 4,900 -290 Descending Minneapolis Center
Fri 10:27:00 PM 40.7625 -98.7795 259° West  Level FlightAware Approximate
Fri 10:34:00 PM 40.7167 -99.0000 270° West  Level FlightAware Approximate
Fri 10:35:00 PM 40.7270 -99.0068 270° West  Level Estimated
Fri 10:36:00 PM 40.7270 -99.0068 270° West  Level Estimated

Login

Don't have an account? Register now (free) for customized features, flight alerts, and more!